Wokal Field Glasgow International Airport Glasgow US
ICAO: KGGW
IATA: GGW
Category: Medium
Scheduled Services: Yes

Elevation: 2296 ft
TransAlt. 18000 ft.

Airport Communications:
ASOS:135.175
SALT LAKE CITY CNTR:126.85
GREAT FALLS RDO:122.25
CTAF/UNICOM:122.8

KGGW Zoom In..

Runways:

(A) RW 08 length 5000 ft width 75 ft
---- / hdg 79

(B) RW 12 length 5002 ft width 100 ft
---- / hdg 123

(C) RW 26 length 5000 ft width 75 ft
---- / hdg 259

(D) RW 30 length 5002 ft width 100 ft
---- / hdg 303

Location; KGGW
Day. 24 / Time. 12.53 Zulu
* Altimeter: 29.80
* Temperature: 14° c. 57.2°f.
* Wind from: 260° Speed 08 kn.
Dewpoint: 14° c.
Visibility: 5 Statute Miles.
Clouds: Few 500 ft.
Clouds: Few 3500 ft.
Conditions: Mist.

KGGW 241253Z AUTO 26008KT 5SM BR FEW005 FEW035 14/14 A2980 RMK AO2 SLP086 T01440139


Wind From 260°
Speed 08 kn.

 
 
jpsmedia.com for Web Design SOUNDCLOUD worldairports.se 2018   terms of use